Time;durP1;ratioP1;P1;durP2;ratioP2;P2;SDS_P1;SDS_P2;PMS_P1;PMS_P2;Temp;Humidity;BMP_temperature;BMP_pressure;BME280_temperature;BME280_humidity;BME280_pressure;Samples;Min_cycle;Max_cycle;Signal;HPM_P1;HPM_P2
2022/11/05 00:10:54;;;;;;;8.70;6.97;;;;;;;9.75;75.40;97621.25;4962161;28;20818;-75
2022/11/05 00:19:08;;;;;;;7.57;6.32;;;;;;;9.75;74.93;97627.53;4923667;29;20046;-75
2022/11/05 00:27:07;;;;;;;7.60;5.68;;;;;;;9.76;74.97;97653.78;4986264;28;20034;-75
2022/11/05 00:29:33;;;;;;;9.82;6.25;;;;;;;9.74;75.34;97647.81;4982372;28;20030;-76
2022/11/05 00:31:58;;;;;;;8.20;6.07;;;;;;;9.71;75.39;97642.16;4983531;28;20030;-76
2022/11/05 00:34:23;;;;;;;7.55;6.40;;;;;;;9.67;75.01;97636.47;4986308;28;20081;-76
2022/11/05 00:36:49;;;;;;;6.90;6.20;;;;;;;9.64;75.83;97637.91;4987892;28;20384;-76
2022/11/05 00:39:14;;;;;;;6.53;5.90;;;;;;;9.61;75.54;97645.94;4986885;28;20438;-76
2022/11/05 00:41:39;;;;;;;7.13;5.95;;;;;;;9.59;75.45;97640.78;4987290;28;20084;-75
2022/11/05 00:49:28;;;;;;;7.07;6.15;;;;;;;9.56;75.29;97655.09;4981744;28;20038;-75
2022/11/05 00:49:34;;;;;;;7.10;6.32;;;;;;;9.56;74.65;97663.28;4984974;28;20048;-76
2022/11/05 00:54:43;;;;;;;6.25;5.65;;;;;;;9.51;75.23;97666.16;4986056;28;20547;-76
2022/11/05 00:57:09;;;;;;;5.80;5.30;;;;;;;9.47;75.06;97657.75;4987437;28;20014;-75
2022/11/05 00:59:34;;;;;;;6.30;5.70;;;;;;;9.45;75.13;97656.44;4986367;28;20023;-75
2022/11/05 01:01:59;;;;;;;5.80;5.25;;;;;;;9.43;75.11;97650.44;4985723;28;20069;-75
2022/11/05 01:04:25;;;;;;;5.40;4.90;;;;;;;9.39;75.26;97651.06;4983817;28;20031;-76
2022/11/05 01:06:50;;;;;;;5.30;4.78;;;;;;;9.39;74.48;97640.13;4982493;28;20019;-76
2022/11/05 01:09:15;;;;;;;7.22;6.22;;;;;;;9.39;75.27;97653.00;4987926;28;20076;-75
2022/11/05 01:11:41;;;;;;;6.10;5.50;;;;;;;9.39;74.92;97659.28;4990603;28;20065;-74
2022/11/05 01:14:10;;;;;;;5.85;5.25;;;;;;;9.41;74.64;97661.72;4987815;28;20084;-74
2022/11/05 01:16:37;;;;;;;7.00;5.43;;;;;;;9.43;74.62;97662.22;4987730;28;20047;-74
2022/11/05 01:19:06;;;;;;;6.07;5.47;;;;;;;9.44;74.50;97666.56;4986841;28;20022;-74
2022/11/05 01:21:32;;;;;;;6.25;5.57;;;;;;;9.45;74.53;97662.72;4985803;28;20047;-74
2022/11/05 01:23:57;;;;;;;6.55;5.88;;;;;;;9.45;74.90;97662.72;4980715;28;20105;-74
2022/11/05 01:26:23;;;;;;;6.85;5.75;;;;;;;9.48;74.25;97670.31;4983421;28;20451;-74
2022/11/05 01:28:53;;;;;;;7.63;5.50;;;;;;;9.49;74.59;97663.72;4990984;28;20030;-75
2022/11/05 01:31:19;;;;;;;4.95;4.45;;;;;;;9.48;74.24;97667.59;4988913;28;20015;-74
2022/11/05 01:33:44;;;;;;;6.10;5.20;;;;;;;9.50;74.55;97665.34;4983563;28;20109;-74
2022/11/05 01:36:10;;;;;;;6.32;5.22;;;;;;;9.50;74.69;97670.00;4965779;28;20137;-74
2022/11/05 01:38:36;;;;;;;6.28;5.20;;;;;;;9.48;74.48;97681.28;4965461;28;20101;-74
2022/11/05 01:41:02;;;;;;;7.53;5.88;;;;;;;9.48;73.89;97686.75;4985307;28;20033;-74
2022/11/05 01:43:54;;;;;;;7.13;5.88;;;;;;;9.46;73.84;97682.69;4963709;28;20034;-74
2022/11/05 01:46:35;;;;;;;6.53;5.43;;;;;;;9.48;74.32;97680.44;4988192;28;20033;-74
2022/11/05 01:49:19;;;;;;;6.78;6.07;;;;;;;9.50;74.01;97686.41;4989561;28;20022;-74
2022/11/05 01:51:45;;;;;;;5.75;5.07;;;;;;;9.52;74.15;97678.72;4982326;28;20485;-74
2022/11/05 01:54:15;;;;;;;5.38;4.57;;;;;;;9.50;74.15;97676.31;4985824;28;20085;-74
2022/11/05 01:56:45;;;;;;;6.15;5.28;;;;;;;9.51;73.82;97683.41;4988148;28;20022;-74
2022/11/05 01:59:41;;;;;;;6.53;4.90;;;;;;;9.49;74.48;97699.31;4968522;28;20022;-74
2022/11/05 02:02:07;;;;;;;6.30;4.75;;;;;;;9.48;74.33;97708.63;4982112;28;20481;-74
2022/11/05 02:04:56;;;;;;;6.35;4.85;;;;;;;9.50;73.69;97711.06;4984365;28;20030;-74
2022/11/05 02:07:24;;;;;;;5.78;4.95;;;;;;;9.53;74.35;97726.88;4964188;28;20396;-75
2022/11/05 02:10:03;;;;;;;5.47;4.95;;;;;;;9.51;73.70;97721.72;4983997;28;20060;-74
2022/11/05 02:12:31;;;;;;;7.38;5.68;;;;;;;9.53;73.68;97740.56;4983281;28;20093;-74
2022/11/05 02:14:57;;;;;;;6.32;4.85;;;;;;;9.52;74.19;97739.75;4988612;28;20061;-74
2022/11/05 02:17:40;;;;;;;6.13;4.85;;;;;;;9.54;73.75;97720.28;4986867;28;20034;-74
2022/11/05 02:20:15;;;;;;;5.28;4.47;;;;;;;9.57;74.17;97727.09;4986965;28;20026;-74
2022/11/05 02:22:55;;;;;;;6.53;4.82;;;;;;;9.55;73.53;97738.31;4985560;28;20026;-74
2022/11/05 02:25:39;;;;;;;4.70;4.20;;;;;;;9.51;74.12;97748.25;4984470;28;20034;-74
2022/11/05 02:28:22;;;;;;;10.90;7.43;;;;;;;9.50;73.95;97741.16;4980203;28;20491;-74
2022/11/05 02:31:24;;;;;;;5.72;5.07;;;;;;;9.51;74.22;97753.75;4984799;28;20049;-74
2022/11/05 02:34:06;;;;;;;7.38;5.70;;;;;;;9.55;73.98;97762.97;4983214;28;20041;-74
2022/11/05 02:36:31;;;;;;;5.63;4.60;;;;;;;9.54;74.04;97750.38;4987019;28;20499;-73
2022/11/05 02:39:21;;;;;;;4.30;3.90;;;;;;;9.56;74.28;97753.63;4984494;28;20026;-74
2022/11/05 02:42:10;;;;;;;3.50;3.20;;;;;;;9.57;74.07;97763.47;4982479;28;20061;-74
2022/11/05 02:45:02;;;;;;;3.60;3.28;;;;;;;9.55;73.78;97778.59;4980977;28;20030;-74
2022/11/05 02:47:30;;;;;;;3.65;3.28;;;;;;;9.53;74.11;97787.09;4982994;28;20043;-74
2022/11/05 02:50:16;;;;;;;4.30;3.30;;;;;;;9.52;73.68;97778.09;4989173;28;20026;-74
2022/11/05 02:52:51;;;;;;;4.20;3.58;;;;;;;9.52;73.87;97778.09;4988045;28;20084;-74
2022/11/05 02:55:32;;;;;;;3.80;3.40;;;;;;;9.58;74.15;97789.72;4984007;28;20030;-74
2022/11/05 02:58:00;;;;;;;5.00;4.13;;;;;;;9.60;74.36;97800.34;4982370;28;20085;-74
2022/11/05 03:00:42;;;;;;;4.20;3.20;;;;;;;9.57;73.51;97790.84;4983034;28;20029;-74
2022/11/05 03:03:13;;;;;;;3.58;3.17;;;;;;;9.54;74.27;97788.72;4980264;28;20023;-74
2022/11/05 03:06:01;;;;;;;4.28;2.88;;;;;;;9.45;74.40;97805.06;4986169;28;20065;-74
2022/11/05 03:08:37;;;;;;;4.13;3.10;;;;;;;9.42;74.58;97813.88;4985631;28;20279;-73
2022/11/05 03:11:17;;;;;;;4.70;4.00;;;;;;;9.39;73.99;97819.94;4987234;28;20010;-73
2022/11/05 03:14:01;;;;;;;4.32;3.92;;;;;;;9.36;74.58;97817.81;4980772;28;20030;-74
2022/11/05 03:16:36;;;;;;;7.30;4.82;;;;;;;9.33;74.44;97818.41;4979010;28;20046;-73
2022/11/05 03:19:14;;;;;;;6.50;4.30;;;;;;;9.29;74.37;97822.88;4983407;28;20057;-74
2022/11/05 03:22:04;;;;;;;4.90;3.97;;;;;;;9.21;75.12;97824.41;4982227;28;20108;-74
2022/11/05 03:24:33;;;;;;;4.43;4.03;;;;;;;9.17;74.94;97818.72;4971382;28;20022;-74
2022/11/05 03:27:02;;;;;;;4.25;3.85;;;;;;;9.14;74.63;97821.25;4987327;28;20030;-74
2022/11/05 03:29:34;;;;;;;5.75;4.40;;;;;;;9.14;75.69;97833.03;4984376;28;20124;-74
2022/11/05 03:32:03;;;;;;;4.63;3.63;;;;;;;9.17;76.00;97842.53;4983378;28;20123;-74
2022/11/05 03:34:34;;;;;;;3.55;3.25;;;;;;;9.14;75.66;97840.41;4979995;28;20034;-74
2022/11/05 03:37:01;;;;;;;4.40;4.00;;;;;;;9.16;76.19;97843.66;4982464;28;20023;-73
2022/11/05 03:39:53;;;;;;;3.00;2.65;;;;;;;9.18;75.38;97830.47;4982239;28;20025;-73
2022/11/05 03:42:24;;;;;;;3.15;2.75;;;;;;;9.20;75.85;97841.94;4988764;28;20018;-73
2022/11/05 03:44:55;;;;;;;3.08;2.78;;;;;;;9.23;76.12;97841.34;4967066;28;20022;-74
2022/11/05 03:47:26;;;;;;;3.30;3.00;;;;;;;9.24;75.93;97840.22;4985360;28;20027;-74
2022/11/05 03:50:04;;;;;;;3.72;3.15;;;;;;;9.21;75.90;97851.75;4983188;28;20023;-74
2022/11/05 03:52:37;;;;;;;1.75;1.65;;;;;;;9.20;76.55;97861.09;4983302;28;20473;-74
2022/11/05 03:55:03;;;;;;;1.20;1.10;;;;;;;9.17;76.64;97873.44;4981279;28;20030;-73
2022/11/05 03:57:31;;;;;;;2.30;1.77;;;;;;;9.16;76.29;97873.75;4981949;28;20023;-74
2022/11/05 03:59:57;;;;;;;2.67;2.00;;;;;;;9.17;76.54;97881.63;4991909;28;20416;-74
2022/11/05 04:02:24;;;;;;;2.33;1.90;;;;;;;9.15;76.39;97881.16;4972964;28;20022;-74
2022/11/05 04:04:51;;;;;;;1.65;1.45;;;;;;;9.16;76.61;97885.50;4989983;28;20022;-74
2022/11/05 04:15:29;;;;;;;1.77;1.67;;;;;;;8.97;76.81;97898.41;4989784;28;20102;-74
2022/11/05 04:17:57;;;;;;;1.75;1.60;;;;;;;8.97;77.09;97898.41;4991387;28;20022;-73
2022/11/05 04:25:52;;;;;;;2.35;1.90;;;;;;;8.93;77.46;97890.00;4985483;28;20867;-73
2022/11/05 04:28:18;;;;;;;2.63;2.25;;;;;;;8.91;77.89;97906.69;4987423;28;20026;-74
2022/11/05 04:30:43;;;;;;;2.17;2.00;;;;;;;8.87;76.88;97910.34;4984787;28;20030;-74
2022/11/05 04:33:14;;;;;;;2.30;2.10;;;;;;;8.81;77.52;97914.28;4972514;28;20109;-74
2022/11/05 04:35:45;;;;;;;2.20;1.98;;;;;;;8.75;77.41;97908.09;4988842;28;20089;-74
2022/11/05 04:38:16;;;;;;;2.40;2.20;;;;;;;8.70;77.79;97906.22;4984916;28;20030;-73
2022/11/05 04:40:43;;;;;;;2.17;1.90;;;;;;;8.68;77.64;97919.38;4988399;28;20639;-74
2022/11/05 04:43:12;;;;;;;3.20;1.90;;;;;;;8.69;76.79;97917.47;4987890;28;20050;-74
2022/11/05 04:45:37;;;;;;;3.97;2.33;;;;;;;8.71;77.41;97912.50;4983780;28;20030;-73
2022/11/05 04:48:03;;;;;;;1.88;1.73;;;;;;;8.72;77.58;97916.88;4983393;28;20022;-74
2022/11/05 04:50:29;;;;;;;2.30;1.75;;;;;;;8.73;77.39;97918.50;4993320;28;20431;-74
2022/11/05 04:52:55;;;;;;;1.52;1.38;;;;;;;8.72;77.30;97920.41;4982261;28;20039;-74
2022/11/05 04:55:20;;;;;;;2.40;1.65;;;;;;;8.73;77.90;97919.28;4987887;28;20444;-74
2022/11/05 04:57:50;;;;;;;1.55;1.45;;;;;;;8.77;77.87;97919.50;4985700;28;20487;-74
2022/11/05 05:00:17;;;;;;;1.83;1.73;;;;;;;8.80;77.63;97918.91;4992225;28;20030;-74
2022/11/05 05:02:43;;;;;;;2.15;1.40;;;;;;;8.82;77.04;97918.63;4993725;28;20476;-74
2022/11/05 05:05:08;;;;;;;2.58;1.90;;;;;;;8.87;77.22;97924.81;4992658;28;20064;-74
2022/11/05 05:07:34;;;;;;;1.52;1.40;;;;;;;8.89;77.43;97919.06;4979916;28;20049;-73
2022/11/05 05:10:01;;;;;;;1.83;1.20;;;;;;;8.89;77.27;97924.53;4980303;28;20496;-73
2022/11/05 05:12:26;;;;;;;1.40;1.13;;;;;;;8.86;76.47;97923.19;4976787;28;20034;-73
2022/11/05 05:14:52;;;;;;;2.13;1.92;;;;;;;8.86;76.85;97928.66;4974273;28;20046;-73
2022/11/05 05:17:17;;;;;;;2.08;1.38;;;;;;;8.86;77.09;97931.41;4976697;28;20150;-73
2022/11/05 05:22:27;;;;;;;1.80;1.40;;;;;;;8.89;76.70;97930.81;4992659;28;20149;-73
2022/11/05 05:24:53;;;;;;;1.50;1.23;;;;;;;8.87;77.31;97938.50;4990032;28;20043;-74
2022/11/05 05:27:18;;;;;;;2.08;1.60;;;;;;;8.91;76.46;97946.94;4993058;28;20033;-73
2022/11/05 05:29:44;;;;;;;1.80;1.70;;;;;;;8.90;76.91;97943.38;4981606;28;20034;-74
2022/11/05 05:32:09;;;;;;;2.90;1.67;;;;;;;8.91;76.74;97939.53;4990449;28;20034;-73
2022/11/05 05:34:35;;;;;;;2.60;1.50;;;;;;;8.90;76.91;97937.91;4993093;28;20365;-74
2022/11/05 05:37:00;;;;;;;2.35;1.50;;;;;;;8.90;76.22;97948.84;4992708;28;20519;-74
2022/11/05 05:39:26;;;;;;;1.52;1.42;;;;;;;8.89;76.44;97955.41;4984592;28;20389;-73
2022/11/05 05:41:51;;;;;;;2.50;1.23;;;;;;;8.89;76.79;97952.69;4973440;28;20027;-73
2022/11/05 05:44:17;;;;;;;1.42;1.20;;;;;;;8.89;76.60;97949.94;4956041;28;20037;-73
2022/11/05 05:46:43;;;;;;;3.05;1.60;;;;;;;8.88;76.65;97955.72;4975573;28;20129;-73
2022/11/05 05:49:10;;;;;;;2.63;1.60;;;;;;;8.87;76.96;97959.56;4985569;28;20023;-73
2022/11/05 05:51:35;;;;;;;2.72;1.80;;;;;;;8.84;76.14;97968.38;4973411;28;20031;-73
2022/11/05 05:54:01;;;;;;;3.15;1.88;;;;;;;8.83;76.51;97962.06;4990764;28;20399;-72
2022/11/05 05:56:26;;;;;;;3.80;2.00;;;;;;;8.85;76.52;97970.00;4990230;28;20030;-73
2022/11/05 05:58:52;;;;;;;4.03;2.30;;;;;;;8.86;76.35;97983.34;4991485;28;20035;-73
2022/11/05 06:01:18;;;;;;;3.75;2.53;;;;;;;8.89;76.77;97985.50;4992364;28;20057;-73
2022/11/05 06:03:43;;;;;;;3.25;1.90;;;;;;;8.85;76.50;97995.41;4990155;28;20113;-73
2022/11/05 06:06:13;;;;;;;4.53;3.08;;;;;;;8.89;76.62;97995.63;4974115;28;20042;-73
2022/11/05 06:08:39;;;;;;;4.38;2.38;;;;;;;8.93;76.28;98000.22;4979680;28;20035;-72
2022/11/05 06:11:05;;;;;;;3.17;2.05;;;;;;;9.00;76.61;98005.28;4978604;28;20027;-73
2022/11/05 06:13:30;;;;;;;4.93;1.85;;;;;;;9.01;76.86;98008.84;4972605;28;20037;-73
2022/11/05 06:16:04;;;;;;;2.58;1.75;;;;;;;9.05;76.21;98007.16;4977619;28;20122;-73
2022/11/05 06:18:30;;;;;;;3.17;1.50;;;;;;;9.04;76.23;98003.59;4992647;28;20041;-73
2022/11/05 06:21:10;;;;;;;2.25;1.60;;;;;;;8.98;76.64;98010.25;4984432;28;20026;-73
2022/11/05 06:23:38;;;;;;;2.20;1.60;;;;;;;8.95;76.14;98027.28;4974057;28;20027;-72
2022/11/05 06:26:15;;;;;;;4.50;2.38;;;;;;;8.94;76.06;98039.31;4977547;28;20548;-72
2022/11/05 06:28:42;;;;;;;3.10;1.60;;;;;;;8.92;76.54;98031.41;4975257;28;20389;-73
2022/11/05 06:31:09;;;;;;;4.18;1.80;;;;;;;8.92;75.78;98047.81;4982333;28;20440;-73
2022/11/05 06:33:34;;;;;;;1.70;1.60;;;;;;;8.93;75.73;98065.03;4992013;28;20118;-73
2022/11/05 06:36:01;;;;;;;2.47;1.73;;;;;;;8.91;76.41;98048.13;4984700;28;20106;-73
2022/11/05 06:38:28;;;;;;;6.80;3.90;;;;;;;8.87;76.11;98061.56;4973674;28;20088;-73
2022/11/05 06:40:53;;;;;;;21.35;6.97;;;;;;;8.88;76.09;98065.13;4973764;28;20109;-74
2022/11/05 06:43:19;;;;;;;6.35;2.42;;;;;;;8.87;75.67;98053.34;4976846;28;20106;-73
2022/11/05 06:45:44;;;;;;;2.92;2.08;;;;;;;8.87;76.06;98049.81;4976363;28;20388;-72
2022/11/05 06:48:09;;;;;;;4.55;1.98;;;;;;;8.86;75.76;98061.84;4983373;28;20069;-72
2022/11/05 06:50:35;;;;;;;3.72;2.60;;;;;;;8.87;76.10;98067.03;4992344;28;20639;-73
2022/11/05 06:53:02;;;;;;;10.25;3.88;;;;;;;8.90;76.30;98076.56;4991209;28;20283;-73
2022/11/05 06:55:29;;;;;;;8.75;3.30;;;;;;;8.96;76.17;98085.50;4979265;28;20027;-73
2022/11/05 06:57:56;;;;;;;5.70;2.30;;;;;;;8.99;76.75;98090.41;4991867;28;20105;-73
2022/11/05 07:00:22;;;;;;;6.22;3.03;;;;;;;8.98;76.62;98091.50;4991236;28;20026;-73
2022/11/05 07:02:48;;;;;;;12.05;4.32;;;;;;;8.99;76.41;98104.06;4991339;28;20074;-72
2022/11/05 07:05:15;;;;;;;9.38;3.90;;;;;;;8.99;76.73;98104.06;4981566;28;20027;-73
2022/11/05 07:07:42;;;;;;;18.30;10.75;;;;;;;9.00;76.39;98105.69;4974883;28;20033;-72
2022/11/05 07:10:11;;;;;;;11.23;6.47;;;;;;;8.99;75.71;98098.59;4981781;28;20117;-73
2022/11/05 07:12:37;;;;;;;7.10;4.72;;;;;;;8.99;76.25;98102.13;4973082;28;20027;-73
2022/11/05 07:15:03;;;;;;;4.63;3.03;;;;;;;8.99;76.29;98106.81;4974752;28;20081;-73
2022/11/05 07:17:28;;;;;;;3.83;2.40;;;;;;;8.99;76.52;98118.53;4989615;28;20551;-73
2022/11/05 07:19:54;;;;;;;20.35;11.43;;;;;;;8.98;75.88;98113.38;4981553;28;20118;-73
2022/11/05 07:22:19;;;;;;;6.38;3.75;;;;;;;8.94;75.91;98124.91;4978134;28;20485;-72
2022/11/05 07:24:46;;;;;;;13.80;7.00;;;;;;;8.89;75.97;98132.38;4976253;28;20034;-73
2022/11/05 07:27:12;;;;;;;4.00;2.70;;;;;;;8.86;76.74;98131.03;4975085;28;20066;-73
2022/11/05 07:29:37;;;;;;;5.25;2.42;;;;;;;8.85;76.06;98131.34;4973288;28;20489;-73
2022/11/05 07:32:03;;;;;;;24.85;10.73;;;;;;;8.83;76.24;98136.28;4974152;28;20124;-73
2022/11/05 07:34:28;;;;;;;19.55;6.13;;;;;;;8.86;76.48;98146.63;4994851;28;20431;-73
2022/11/05 07:36:54;;;;;;;4.30;2.55;;;;;;;8.89;77.20;98157.00;4994729;28;20054;-72
2022/11/05 07:39:19;;;;;;;8.60;3.70;;;;;;;8.88;76.73;98142.50;4979026;28;20027;-73
2022/11/05 07:41:45;;;;;;;4.82;2.78;;;;;;;8.87;76.78;98148.25;4975906;28;20038;-73
2022/11/05 07:44:10;;;;;;;7.70;4.13;;;;;;;8.86;76.70;98135.69;4979738;28;20026;-73
2022/11/05 07:46:36;;;;;;;20.40;7.93;;;;;;;8.89;76.35;98146.84;4975372;28;20121;-73
2022/11/05 07:49:02;;;;;;;19.38;7.10;;;;;;;8.92;77.15;98143.53;4975638;28;20396;-73
2022/11/05 07:51:27;;;;;;;18.75;7.20;;;;;;;8.93;76.63;98138.88;4975738;28;20034;-73
2022/11/05 07:53:53;;;;;;;21.63;8.55;;;;;;;8.92;76.77;98148.19;4975581;28;20031;-73
2022/11/05 07:56:18;;;;;;;10.85;4.88;;;;;;;8.91;76.95;98150.09;4976711;28;20035;-72
2022/11/05 07:58:43;;;;;;;16.42;5.80;;;;;;;8.90;77.25;98156.69;4976972;28;20035;-72
2022/11/05 08:01:09;;;;;;;6.63;3.40;;;;;;;8.93;76.58;98155.31;4975665;28;20054;-73
2022/11/05 08:03:34;;;;;;;8.32;4.22;;;;;;;8.91;76.93;98152.84;4975543;28;20109;-71
2022/11/05 08:05:59;;;;;;;9.88;4.90;;;;;;;8.93;76.84;98153.38;4977329;28;20101;-72
2022/11/05 08:08:25;;;;;;;3.30;2.33;;;;;;;8.95;76.76;98161.28;4986917;28;20107;-72
2022/11/05 08:10:50;;;;;;;3.72;2.83;;;;;;;8.90;77.17;98156.69;4975299;28;20134;-72
2022/11/05 08:13:16;;;;;;;10.75;5.13;;;;;;;8.89;76.36;98163.25;4978866;28;20073;-72
2022/11/05 08:15:43;;;;;;;8.93;4.20;;;;;;;8.91;77.14;98165.72;4993463;28;20042;-72
2022/11/05 08:18:12;;;;;;;8.20;4.95;;;;;;;8.90;76.68;98167.63;4976438;28;20492;-72
2022/11/05 08:20:39;;;;;;;5.57;3.40;;;;;;;8.94;77.12;98168.66;4980671;28;20037;-72
2022/11/05 08:23:05;;;;;;;5.05;3.25;;;;;;;8.93;77.13;98169.78;4981640;28;20105;-73
2022/11/05 08:25:31;;;;;;;3.80;3.25;;;;;;;8.94;77.06;98171.41;4983811;28;20114;-72
2022/11/05 08:28:05;;;;;;;5.60;4.28;;;;;;;8.97;76.79;98191.06;4994364;28;20022;-72
2022/11/05 08:30:31;;;;;;;7.10;5.57;;;;;;;9.01;76.74;98178.44;4982701;28;20025;-72
2022/11/05 08:32:59;;;;;;;6.18;3.80;;;;;;;9.04;76.69;98186.88;4989220;28;20070;-73
2022/11/05 08:35:26;;;;;;;6.18;4.40;;;;;;;9.05;77.46;98174.81;4993690;28;20046;-73
2022/11/05 08:37:56;;;;;;;5.05;4.40;;;;;;;9.06;77.13;98183.84;4993531;28;20045;-72
2022/11/05 08:40:21;;;;;;;7.80;4.47;;;;;;;9.05;77.08;98179.50;4976993;28;20550;-73
2022/11/05 08:42:47;;;;;;;6.25;4.20;;;;;;;9.05;76.62;98182.22;4994040;28;20026;-73
2022/11/05 08:45:12;;;;;;;6.45;3.88;;;;;;;9.05;76.90;98174.03;4992618;28;20030;-72
2022/11/05 08:47:38;;;;;;;7.25;4.57;;;;;;;9.03;76.63;98177.03;4993342;28;20038;-72
2022/11/05 08:50:03;;;;;;;10.60;5.85;;;;;;;9.04;76.78;98175.13;4994142;28;20460;-72
2022/11/05 08:52:28;;;;;;;6.15;4.13;;;;;;;9.06;76.98;98179.19;4987273;28;20111;-72
2022/11/05 08:54:54;;;;;;;7.80;4.50;;;;;;;9.07;77.40;98177.28;4979318;28;20102;-72
2022/11/05 08:57:19;;;;;;;7.68;4.35;;;;;;;9.13;78.02;98187.06;4980118;28;20429;-72
2022/11/05 08:59:44;;;;;;;7.85;4.40;;;;;;;9.16;77.35;98185.63;4993315;28;20117;-73
2022/11/05 09:02:10;;;;;;;6.93;4.03;;;;;;;9.18;77.54;98189.69;4983343;28;20038;-73
2022/11/05 09:04:35;;;;;;;7.10;4.25;;;;;;;9.20;77.28;98183.94;4993207;28;20026;-73
2022/11/05 09:07:01;;;;;;;6.20;3.92;;;;;;;9.21;77.40;98188.31;4993178;28;20042;-72
2022/11/05 09:09:26;;;;;;;7.65;4.50;;;;;;;9.20;77.05;98187.47;4993096;28;20552;-73
2022/11/05 09:11:51;;;;;;;7.65;5.10;;;;;;;9.21;77.03;98186.38;4993283;28;20042;-73
2022/11/05 09:14:17;;;;;;;6.78;4.70;;;;;;;9.21;77.21;98189.13;4992942;28;20117;-72
2022/11/05 09:16:42;;;;;;;6.57;5.07;;;;;;;9.22;77.77;98196.22;4983637;28;20050;-73
2022/11/05 09:19:08;;;;;;;6.55;4.72;;;;;;;9.23;77.41;98197.84;4990719;28;20098;-72
2022/11/05 09:21:33;;;;;;;6.18;4.53;;;;;;;9.25;77.45;98194.84;4996689;28;20065;-73
2022/11/05 09:23:58;;;;;;;5.85;4.18;;;;;;;9.27;77.39;98209.03;4984131;28;20115;-72
2022/11/05 09:26:24;;;;;;;6.25;4.57;;;;;;;9.30;77.56;98211.19;4993373;28;20350;-73
2022/11/05 09:28:49;;;;;;;6.38;5.03;;;;;;;9.32;77.18;98213.63;4992719;28;20027;-72
2022/11/05 09:31:14;;;;;;;6.32;5.18;;;;;;;9.27;77.75;98214.50;4981574;28;20524;-73
2022/11/05 09:33:40;;;;;;;5.60;5.05;;;;;;;9.27;77.41;98219.16;4987587;28;20041;-72
2022/11/05 09:36:06;;;;;;;5.45;4.50;;;;;;;9.27;77.12;98227.38;4993301;28;20084;-73
2022/11/05 09:38:33;;;;;;;4.80;4.30;;;;;;;9.26;77.86;98212.06;4975865;28;20031;-72
2022/11/05 09:41:07;;;;;;;5.00;4.40;;;;;;;9.29;77.77;98216.94;4957935;28;20078;-72
2022/11/05 09:43:47;;;;;;;5.88;4.30;;;;;;;9.29;77.51;98219.66;4988334;28;20031;-72
2022/11/05 09:46:23;;;;;;;7.13;5.43;;;;;;;9.30;77.96;98213.91;4992798;28;20046;-72
2022/11/05 09:49:04;;;;;;;6.40;4.50;;;;;;;9.29;77.86;98217.75;4980309;28;20384;-72
2022/11/05 09:51:30;;;;;;;6.47;5.20;;;;;;;9.30;77.78;98222.13;4992191;28;20038;-73
2022/11/05 09:53:58;;;;;;;5.45;4.38;;;;;;;9.31;77.39;98223.75;4992842;28;20037;-72
2022/11/05 09:56:29;;;;;;;4.80;4.30;;;;;;;9.33;77.74;98228.94;4977837;28;20030;-72
2022/11/05 09:58:59;;;;;;;4.22;3.80;;;;;;;9.33;78.27;98237.97;4973006;28;20727;-72
2022/11/05 10:01:30;;;;;;;5.95;4.55;;;;;;;9.31;78.09;98237.44;4991960;28;20026;-72
2022/11/05 10:03:58;;;;;;;7.35;5.32;;;;;;;9.33;77.78;98234.41;4981633;28;20065;-72
2022/11/05 10:06:25;;;;;;;8.07;5.70;;;;;;;9.37;77.72;98243.66;4973057;28;20082;-73
2022/11/05 10:08:58;;;;;;;6.75;4.68;;;;;;;9.37;78.05;98247.19;4991836;28;20041;-72
2022/11/05 10:11:48;;;;;;;6.80;5.03;;;;;;;9.41;78.19;98239.22;4991989;28;20030;-72
2022/11/05 10:14:27;;;;;;;10.35;7.68;;;;;;;9.44;77.87;98244.13;4962352;28;20408;-72
2022/11/05 10:17:21;;;;;;;13.45;8.48;;;;;;;9.46;77.59;98247.38;4974614;28;20045;-73
2022/11/05 10:19:51;;;;;;;11.45;6.90;;;;;;;9.41;77.68;98263.88;4983880;28;20035;-72
2022/11/05 10:22:18;;;;;;;6.30;4.43;;;;;;;9.43;78.46;98264.38;4985442;28;20112;-72
2022/11/05 10:24:46;;;;;;;13.32;7.07;;;;;;;9.43;78.56;98256.16;4974180;28;20500;-72
2022/11/05 10:27:35;;;;;;;17.83;9.57;;;;;;;9.38;78.18;98264.44;5104631;27;20441;-72
2022/11/05 10:30:01;;;;;;;17.42;9.45;;;;;;;9.38;78.84;98275.41;5105616;28;20031;-71
2022/11/05 10:32:28;;;;;;;27.52;11.95;;;;;;;9.36;78.24;98274.88;5107457;28;20039;-72
2022/11/05 10:34:56;;;;;;;14.73;7.65;;;;;;;9.33;78.84;98267.25;5107557;28;20043;-71
2022/11/05 10:37:23;;;;;;;12.55;6.10;;;;;;;9.33;78.47;98269.97;5106146;28;20040;-71
2022/11/05 10:39:49;;;;;;;7.35;4.65;;;;;;;9.30;78.62;98263.19;5106649;28;20645;-71
2022/11/05 10:42:29;;;;;;;7.20;4.38;;;;;;;9.29;78.75;98269.75;5107706;28;20063;-72
2022/11/05 10:45:17;;;;;;;8.18;5.03;;;;;;;9.27;78.32;98265.66;5108560;28;20391;-73
2022/11/05 10:48:19;;;;;;;5.75;4.68;;;;;;;9.27;78.42;98276.63;5105736;28;20020;-72
2022/11/05 10:50:46;;;;;;;6.15;4.22;;;;;;;9.26;78.79;98275.00;5105172;28;20106;-71
2022/11/05 10:53:17;;;;;;;8.30;4.93;;;;;;;9.22;78.54;98275.56;5098001;28;20028;-71
2022/11/05 10:55:45;;;;;;;8.15;5.45;;;;;;;9.22;78.98;98272.84;5101345;28;20483;-70
2022/11/05 10:58:10;;;;;;;5.15;4.35;;;;;;;9.19;78.72;98264.41;5107125;28;20028;-71
2022/11/05 11:00:36;;;;;;;10.48;6.40;;;;;;;9.19;79.31;98265.22;5107543;28;20388;-71
2022/11/05 11:03:04;;;;;;;10.02;6.30;;;;;;;9.20;79.05;98271.50;5106356;28;20031;-71
2022/11/05 11:05:38;;;;;;;5.43;4.65;;;;;;;9.22;79.61;98272.03;5106245;28;20062;-70
2022/11/05 11:08:21;;;;;;;5.78;4.80;;;;;;;9.20;79.57;98271.50;5106805;28;20368;-70
2022/11/05 11:10:48;;;;;;;6.65;5.35;;;;;;;9.22;79.85;98278.31;5104801;28;20023;-71
2022/11/05 11:13:20;;;;;;;6.97;5.05;;;;;;;9.27;78.90;98287.56;5105131;28;20016;-71
2022/11/05 11:15:45;;;;;;;9.65;7.00;;;;;;;9.28;79.05;98280.97;5107423;28;20080;-70
2022/11/05 11:18:29;;;;;;;15.38;8.02;;;;;;;9.30;78.93;98286.97;5106659;28;20110;-71
2022/11/05 11:21:14;;;;;;;12.25;7.60;;;;;;;9.32;79.26;98292.97;5106096;28;20035;-71
2022/11/05 11:23:42;;;;;;;8.75;6.20;;;;;;;9.35;79.07;98293.22;5107722;28;20031;-70
2022/11/05 11:26:10;;;;;;;9.15;6.75;;;;;;;9.35;79.09;98297.88;5097502;28;20083;-70
2022/11/05 11:28:50;;;;;;;13.80;8.23;;;;;;;9.38;78.92;98291.81;5085395;28;20476;-70
2022/11/05 11:31:19;;;;;;;;;;;;;;;9.45;79.38;98297.75;5082661;28;20024;-70
2022/11/05 11:33:48;;;;;;;8.98;6.82;;;;;;;9.44;79.12;98301.59;5084337;28;19916;-71
2022/11/05 11:36:23;;;;;;;27.83;15.02;;;;;;;9.42;79.20;98300.25;5086061;28;20048;-71
2022/11/05 11:38:48;;;;;;;28.58;12.57;;;;;;;9.42;78.66;98302.97;5066276;28;20016;-70
2022/11/05 11:41:30;;;;;;;11.23;6.85;;;;;;;9.41;79.53;98304.91;5072594;28;20024;-71
2022/11/05 11:44:05;;;;;;;9.90;6.60;;;;;;;9.40;78.77;98306.03;5069000;28;20028;-71
2022/11/05 11:46:34;;;;;;;8.55;6.13;;;;;;;9.39;78.84;98304.41;5071880;28;20036;-70
2022/11/05 11:49:01;;;;;;;9.35;6.80;;;;;;;9.39;79.03;98296.97;5071702;28;20115;-71
2022/11/05 11:51:35;;;;;;;6.32;5.72;;;;;;;9.39;79.22;98309.88;5071501;28;20055;-70
2022/11/05 11:54:02;;;;;;;8.00;6.80;;;;;;;9.40;79.08;98300.56;5067436;28;20031;-72
2022/11/05 11:56:29;;;;;;;6.47;5.47;;;;;;;9.39;78.49;98304.41;5069844;28;20468;-70
2022/11/05 11:58:59;;;;;;;9.52;7.93;;;;;;;9.41;78.95;98304.09;5067635;28;20378;-70
2022/11/05 12:01:43;;;;;;;7.63;6.80;;;;;;;9.43;79.54;98310.09;5063022;28;20029;-70
2022/11/05 12:04:26;;;;;;;7.28;5.85;;;;;;;9.44;78.58;98308.97;5065774;28;20044;-70
2022/11/05 12:07:10;;;;;;;7.93;5.63;;;;;;;9.43;78.83;98316.41;5066187;28;20028;-70
2022/11/05 12:10:05;;;;;;;7.55;5.57;;;;;;;9.44;79.12;98319.94;5072149;28;20025;-70
2022/11/05 12:12:45;;;;;;;6.95;4.70;;;;;;;9.44;78.66;98323.50;5068963;28;20617;-70
2022/11/05 12:15:10;;;;;;;8.27;5.75;;;;;;;9.43;78.91;98318.31;5073046;28;20473;-70
2022/11/05 12:17:45;;;;;;;7.75;5.88;;;;;;;9.43;78.50;98324.59;5050148;28;20035;-70
2022/11/05 12:20:16;;;;;;;8.70;5.97;;;;;;;9.44;78.83;98318.03;5070744;28;20063;-69
2022/11/05 12:23:11;;;;;;;10.05;6.35;;;;;;;9.46;78.88;98328.66;5069940;28;20490;-69
2022/11/05 12:26:18;;;;;;;9.88;6.22;;;;;;;9.51;78.96;98334.09;5065932;28;20072;-69
2022/11/05 12:28:52;;;;;;;7.20;5.20;;;;;;;9.57;78.70;98334.84;4976780;28;20072;-72
2022/11/05 12:31:20;;;;;;;5.20;4.45;;;;;;;9.57;79.42;98335.66;5054593;28;20457;-70
2022/11/05 12:34:30;;;;;;;5.97;4.93;;;;;;;9.62;78.60;98338.34;5067417;28;20101;-71
2022/11/05 12:37:11;;;;;;;5.75;4.43;;;;;;;9.65;78.91;98339.66;4967927;28;20043;-70
2022/11/05 12:40:17;;;;;;;4.28;3.70;;;;;;;9.66;78.67;98342.13;5060472;28;20037;-70